createdAt,value
2018-12-12T00:01:01.032Z,15.90
2018-12-12T00:03:29.213Z,18.13
2018-12-12T00:05:57.404Z,22.80
2018-12-12T00:08:25.567Z,20.93
2018-12-12T00:10:53.749Z,23.33
2018-12-12T00:13:21.921Z,18.80
2018-12-12T00:15:50.105Z,19.37
2018-12-12T00:18:18.283Z,20.70
2018-12-12T00:20:46.451Z,17.43
2018-12-12T00:23:14.721Z,19.53
2018-12-12T00:25:42.895Z,24.00
2018-12-12T00:28:11.152Z,13.10
2018-12-12T00:30:39.561Z,18.67
2018-12-12T00:33:07.756Z,18.20
2018-12-12T00:35:35.963Z,19.03
2018-12-12T00:38:04.200Z,19.23
2018-12-12T00:40:32.376Z,24.23
2018-12-12T00:43:00.570Z,20.63
2018-12-12T00:45:28.726Z,19.03
2018-12-12T00:47:56.908Z,15.10
2018-12-12T00:50:25.066Z,15.60
2018-12-12T00:52:53.245Z,19.40
2018-12-12T00:55:21.403Z,19.03
2018-12-12T00:57:49.604Z,20.57
2018-12-12T01:00:17.827Z,22.57
2018-12-12T01:02:46.033Z,15.23
2018-12-12T01:05:14.266Z,19.60
2018-12-12T01:07:42.485Z,19.60
2018-12-12T01:10:10.644Z,16.03
2018-12-12T01:12:38.824Z,19.50
2018-12-12T01:15:07.117Z,17.97
2018-12-12T01:17:35.311Z,20.47
2018-12-12T01:20:04.856Z,15.20
2018-12-12T01:22:33.025Z,21.17
2018-12-12T01:25:01.219Z,16.97
2018-12-12T01:27:29.397Z,17.03
2018-12-12T01:29:57.618Z,18.30
2018-12-12T01:32:25.793Z,19.37
2018-12-12T01:34:54.024Z,26.37
2018-12-12T01:37:22.821Z,17.43
2018-12-12T01:39:51.010Z,24.13
2018-12-12T01:42:19.184Z,17.73
2018-12-12T01:44:47.360Z,22.07
2018-12-12T01:47:15.654Z,19.07
2018-12-12T01:49:43.809Z,25.47
2018-12-12T01:52:11.996Z,21.87
2018-12-12T01:54:40.391Z,20.47
2018-12-12T01:57:08.628Z,20.23
2018-12-12T01:59:36.991Z,17.27
2018-12-12T02:02:05.173Z,19.77
2018-12-12T02:04:33.368Z,17.97
2018-12-12T02:07:01.540Z,18.43
2018-12-12T02:09:29.690Z,15.50
2018-12-12T02:11:57.866Z,15.77
2018-12-12T02:14:26.031Z,19.10
2018-12-12T02:16:54.220Z,17.73
2018-12-12T02:19:22.477Z,20.33
2018-12-12T02:21:50.644Z,15.07
2018-12-12T02:24:18.832Z,16.50
2018-12-12T02:26:47.186Z,16.57
2018-12-12T02:29:15.348Z,19.47
2018-12-12T02:31:43.537Z,20.33
2018-12-12T02:34:11.707Z,17.87
2018-12-12T02:36:39.888Z,16.33
2018-12-12T02:39:08.116Z,19.37
2018-12-12T02:41:36.262Z,19.30
2018-12-12T02:44:04.533Z,19.87
2018-12-12T02:46:32.691Z,17.00
2018-12-12T02:49:00.918Z,18.63
2018-12-12T02:51:29.087Z,16.23
2018-12-12T02:53:57.370Z,19.73
2018-12-12T02:56:25.520Z,21.40
2018-12-12T02:58:53.699Z,24.70
2018-12-12T03:01:21.894Z,22.10
2018-12-12T03:03:50.173Z,17.27
2018-12-12T03:06:18.346Z,27.57
2018-12-12T03:08:46.588Z,25.23
2018-12-12T03:11:14.759Z,24.80
2018-12-12T03:13:42.945Z,24.13
2018-12-12T03:16:11.116Z,27.13
2018-12-12T03:18:39.292Z,31.10
2018-12-12T03:21:07.481Z,26.60
2018-12-12T03:23:35.659Z,31.43
2018-12-12T03:26:03.858Z,29.97
2018-12-12T03:28:32.034Z,30.40
2018-12-12T03:31:00.232Z,24.40
2018-12-12T03:33:28.494Z,29.77
2018-12-12T03:35:56.677Z,27.60
2018-12-12T03:38:24.873Z,24.60
2018-12-12T03:40:53.251Z,25.53
2018-12-12T03:43:21.407Z,30.80
2018-12-12T03:45:49.613Z,30.40
2018-12-12T03:48:17.779Z,21.80
2018-12-12T03:50:45.957Z,30.43
2018-12-12T03:53:14.137Z,27.10
2018-12-12T03:55:42.296Z,27.37
2018-12-12T03:58:10.479Z,26.37
2018-12-12T04:00:39.171Z,24.37
2018-12-12T04:03:07.440Z,21.90
2018-12-12T04:05:35.676Z,25.63
2018-12-12T04:08:03.849Z,26.73
2018-12-12T04:10:32.008Z,27.47
2018-12-12T04:13:00.277Z,30.67
2018-12-12T04:15:28.430Z,30.57
2018-12-12T04:17:56.601Z,30.70
2018-12-12T04:20:24.768Z,32.27
2018-12-12T04:22:52.969Z,35.60
2018-12-12T04:25:21.128Z,33.33
2018-12-12T04:27:49.324Z,33.57
2018-12-12T04:30:17.482Z,37.80
2018-12-12T04:32:45.746Z,31.53
2018-12-12T04:35:13.994Z,30.17
2018-12-12T04:37:42.172Z,29.57
2018-12-12T04:40:10.349Z,30.40
2018-12-12T04:42:38.520Z,28.83
2018-12-12T04:45:06.772Z,31.50
2018-12-12T04:47:34.932Z,27.73
2018-12-12T04:50:03.660Z,40.27
2018-12-12T04:52:31.826Z,32.53
2018-12-12T04:55:00.012Z,32.10
2018-12-12T04:57:28.199Z,34.00
2018-12-12T04:59:56.452Z,38.07
2018-12-12T05:02:24.611Z,39.03
2018-12-12T05:04:53.073Z,34.60
2018-12-12T05:07:21.356Z,49.90
2018-12-12T05:09:49.532Z,35.27
2018-12-12T05:12:17.691Z,38.63
2018-12-12T05:14:45.887Z,48.33
2018-12-12T05:17:14.056Z,42.97
2018-12-12T05:19:42.507Z,51.10
2018-12-12T05:22:10.663Z,51.70
2018-12-12T05:24:38.876Z,51.37
2018-12-12T05:27:07.041Z,50.33
2018-12-12T05:29:35.246Z,52.27
2018-12-12T05:32:03.465Z,41.60
2018-12-12T05:34:31.627Z,46.10
2018-12-12T05:36:59.812Z,56.83
2018-12-12T05:39:27.983Z,38.87
2018-12-12T05:41:56.159Z,40.23
2018-12-12T05:44:24.321Z,48.83
2018-12-12T05:46:52.577Z,58.47
2018-12-12T05:49:20.753Z,63.00
2018-12-12T05:51:49.018Z,49.80
2018-12-12T05:54:17.172Z,40.80
2018-12-12T05:56:45.351Z,70.40
2018-12-12T05:59:13.516Z,62.33
2018-12-12T06:01:41.976Z,75.47
2018-12-12T06:04:10.143Z,59.77
2018-12-12T06:06:38.320Z,61.87
2018-12-12T06:09:06.476Z,53.47
2018-12-12T06:11:34.779Z,56.70
2018-12-12T06:14:02.980Z,60.30
2018-12-12T06:16:31.177Z,48.77
2018-12-12T06:18:59.337Z,55.23
2018-12-12T06:21:27.492Z,61.03
2018-12-12T06:23:55.767Z,64.27
2018-12-12T06:26:23.897Z,60.37
2018-12-12T06:28:52.077Z,53.13
2018-12-12T06:31:20.240Z,55.70
2018-12-12T06:33:48.436Z,54.67
2018-12-12T06:36:16.668Z,49.17
2018-12-12T06:38:44.860Z,52.30
2018-12-12T06:41:13.024Z,50.37
2018-12-12T06:43:41.246Z,46.27
2018-12-12T06:46:09.471Z,53.27
2018-12-12T06:48:37.647Z,47.97
2018-12-12T06:51:05.815Z,49.93
2018-12-12T06:53:34.031Z,42.73
2018-12-12T06:56:02.224Z,44.50
2018-12-12T06:58:30.404Z,43.37
2018-12-12T07:00:58.583Z,50.67
2018-12-12T07:03:26.777Z,59.07
2018-12-12T07:05:54.939Z,57.43
2018-12-12T07:08:23.124Z,50.27
2018-12-12T07:10:51.284Z,48.00
2018-12-12T07:13:19.459Z,47.93
2018-12-12T07:15:47.648Z,45.87
2018-12-12T07:18:15.816Z,47.27
2018-12-12T07:20:43.993Z,42.77
2018-12-12T07:23:12.162Z,48.30
2018-12-12T07:25:40.344Z,47.90
2018-12-12T07:28:08.589Z,43.87
2018-12-12T07:30:36.772Z,41.43
2018-12-12T07:33:04.961Z,38.63
2018-12-12T07:35:33.141Z,44.63
2018-12-12T07:38:01.306Z,49.27
2018-12-12T07:40:29.490Z,49.73
2018-12-12T07:42:57.660Z,39.73
2018-12-12T07:45:25.847Z,48.80
2018-12-12T07:47:54.300Z,46.77
2018-12-12T07:50:22.468Z,39.13
2018-12-12T07:52:50.633Z,42.83
2018-12-12T07:55:18.833Z,52.10
2018-12-12T07:57:46.995Z,51.30
2018-12-12T08:00:15.163Z,55.03
2018-12-12T08:02:43.356Z,44.73
2018-12-12T08:05:11.673Z,47.57
2018-12-12T08:07:39.856Z,51.97
2018-12-12T08:10:08.020Z,49.07
2018-12-12T08:12:36.206Z,50.80
2018-12-12T08:15:04.543Z,47.27
2018-12-12T08:17:32.724Z,47.30
2018-12-12T08:20:00.886Z,52.40
2018-12-12T08:22:29.062Z,50.07
2018-12-12T08:24:57.308Z,54.90
2018-12-12T08:27:25.532Z,54.10
2018-12-12T08:29:53.792Z,50.07
2018-12-12T08:32:21.955Z,67.23
2018-12-12T08:34:50.416Z,73.50
2018-12-12T08:37:18.684Z,59.17
2018-12-12T08:39:46.971Z,63.07
2018-12-12T08:42:15.160Z,50.90
2018-12-12T08:44:43.325Z,55.37
2018-12-12T08:47:11.525Z,54.47
2018-12-12T08:49:39.691Z,47.63
2018-12-12T08:52:07.843Z,47.07
2018-12-12T08:54:36.408Z,51.43
2018-12-12T08:57:04.587Z,47.93
2018-12-12T08:59:32.845Z,51.07
2018-12-12T09:02:01.012Z,47.80
2018-12-12T09:04:29.278Z,43.70
2018-12-12T09:06:57.427Z,42.00
2018-12-12T09:09:25.600Z,43.90
2018-12-12T09:11:53.756Z,45.93
2018-12-12T09:14:22.030Z,38.60
2018-12-12T09:16:50.164Z,44.20
2018-12-12T09:19:18.791Z,44.77
2018-12-12T09:21:46.949Z,37.23
2018-12-12T09:24:15.124Z,39.53
2018-12-12T09:26:43.304Z,42.57
2018-12-12T09:29:11.462Z,44.30
2018-12-12T09:31:39.875Z,47.40
2018-12-12T09:34:08.041Z,47.13
2018-12-12T09:36:36.220Z,42.00
2018-12-12T09:39:05.685Z,49.00
2018-12-12T09:41:33.872Z,46.03
2018-12-12T09:44:02.051Z,49.60
2018-12-12T09:46:30.203Z,42.77
2018-12-12T09:48:58.373Z,46.50
2018-12-12T09:51:26.580Z,43.47
2018-12-12T09:53:54.745Z,40.87
2018-12-12T09:56:22.941Z,40.00
2018-12-12T09:58:51.112Z,41.27
2018-12-12T10:01:19.393Z,52.30
2018-12-12T10:03:47.528Z,35.33
2018-12-12T10:06:15.726Z,46.83
2018-12-12T10:08:44.012Z,41.63
2018-12-12T10:11:12.232Z,36.80
2018-12-12T10:13:40.380Z,33.43
2018-12-12T10:16:08.576Z,44.13
2018-12-12T10:18:36.744Z,44.80
2018-12-12T10:21:04.912Z,36.50
2018-12-12T10:23:33.163Z,39.03
2018-12-12T10:26:01.360Z,43.90
2018-12-12T10:28:29.905Z,38.50
2018-12-12T10:30:58.172Z,42.83
2018-12-12T10:33:26.478Z,41.07
2018-12-12T10:35:54.728Z,37.60
2018-12-12T10:38:22.960Z,32.23
2018-12-12T10:40:51.360Z,37.07
2018-12-12T10:43:19.554Z,40.97
2018-12-12T10:45:47.708Z,36.80
2018-12-12T10:48:15.894Z,34.73
2018-12-12T10:50:44.101Z,32.17
2018-12-12T10:53:12.279Z,34.47
2018-12-12T10:55:40.481Z,33.93
2018-12-12T10:58:08.694Z,33.17
2018-12-12T11:00:36.870Z,41.53
2018-12-12T11:03:05.051Z,36.50
2018-12-12T11:05:33.236Z,28.07
2018-12-12T11:08:01.774Z,26.47
2018-12-12T11:10:29.961Z,27.57
2018-12-12T11:12:58.148Z,28.23
2018-12-12T11:15:26.407Z,24.73
2018-12-12T11:17:54.548Z,23.87
2018-12-12T11:20:22.856Z,28.10
2018-12-12T11:22:51.007Z,21.23
2018-12-12T11:25:19.206Z,31.57
2018-12-12T11:27:47.393Z,21.70
2018-12-12T11:30:15.568Z,21.37
2018-12-12T11:32:43.736Z,19.80
2018-12-12T11:35:11.920Z,26.97
2018-12-12T11:37:40.158Z,18.43
2018-12-12T11:40:08.462Z,21.33
2018-12-12T11:42:36.668Z,22.03
2018-12-12T11:45:05.077Z,17.07
2018-12-12T11:47:33.261Z,16.17
2018-12-12T11:50:02.774Z,17.53
2018-12-12T11:52:30.936Z,15.93
2018-12-12T11:54:59.205Z,16.33
2018-12-12T11:57:27.379Z,22.00
2018-12-12T11:59:55.558Z,17.00
2018-12-12T12:02:24.115Z,18.63
2018-12-12T12:04:52.546Z,17.37
2018-12-12T12:07:20.742Z,18.47
2018-12-12T12:09:48.916Z,18.40
2018-12-12T12:12:17.140Z,15.87
2018-12-12T12:14:45.429Z,23.13
2018-12-12T12:17:13.608Z,17.10
2018-12-12T12:19:41.767Z,19.97
2018-12-12T12:22:09.996Z,16.97
2018-12-12T12:24:38.368Z,17.37
2018-12-12T12:27:06.564Z,13.90
2018-12-12T12:29:35.031Z,17.57
2018-12-12T12:32:03.256Z,13.57
2018-12-12T12:34:31.770Z,13.93
2018-12-12T12:36:59.897Z,16.73
2018-12-12T12:39:28.156Z,12.10
2018-12-12T12:41:56.330Z,10.37
2018-12-12T12:44:24.510Z,11.87
2018-12-12T12:46:52.689Z,9.67
2018-12-12T12:49:20.895Z,11.00
2018-12-12T12:51:49.087Z,11.10
2018-12-12T12:54:17.288Z,19.73
2018-12-12T12:56:45.482Z,18.77
2018-12-12T12:59:13.659Z,13.67
2018-12-12T13:01:41.824Z,14.27
2018-12-12T13:04:10.173Z,13.40
2018-12-12T13:06:38.449Z,15.53
2018-12-12T13:09:06.595Z,16.70
2018-12-12T13:11:34.791Z,16.67
2018-12-12T13:14:03.221Z,15.33
2018-12-12T13:16:31.494Z,16.67
2018-12-12T13:18:59.664Z,17.63
2018-12-12T13:21:27.876Z,15.83
2018-12-12T13:23:56.042Z,18.03
2018-12-12T13:26:24.240Z,15.77
2018-12-12T13:28:52.444Z,16.77
2018-12-12T13:31:20.677Z,16.73
2018-12-12T13:33:48.849Z,19.43
2018-12-12T13:36:17.135Z,18.60
2018-12-12T13:38:45.319Z,18.00
2018-12-12T13:41:13.512Z,19.47
2018-12-12T13:43:41.707Z,17.33
2018-12-12T13:46:09.955Z,16.43
2018-12-12T13:48:38.211Z,21.30
2018-12-12T13:51:06.471Z,28.60
2018-12-12T13:53:34.667Z,19.60
2018-12-12T13:56:02.925Z,23.47
2018-12-12T13:58:31.138Z,23.30
2018-12-12T14:00:59.317Z,24.50
2018-12-12T14:03:27.524Z,23.60
2018-12-12T14:05:55.686Z,17.80
2018-12-12T14:08:23.918Z,19.67
2018-12-12T14:10:52.107Z,16.40
2018-12-12T14:13:20.377Z,18.20
2018-12-12T14:15:48.541Z,20.50
2018-12-12T14:18:16.817Z,18.77
2018-12-12T14:20:44.979Z,20.17
2018-12-12T14:23:13.211Z,16.30
2018-12-12T14:25:41.422Z,16.00
2018-12-12T14:28:09.669Z,19.37
2018-12-12T14:30:37.862Z,18.80
2018-12-12T14:33:06.063Z,23.27
2018-12-12T14:35:34.272Z,18.33
2018-12-12T14:38:02.458Z,20.37
2018-12-12T14:40:30.619Z,26.43
2018-12-12T14:42:58.817Z,20.87
2018-12-12T14:45:26.991Z,23.57
2018-12-12T14:47:55.158Z,24.63
2018-12-12T14:50:23.348Z,25.13
2018-12-12T14:52:51.512Z,24.43
2018-12-12T14:55:19.732Z,27.40
2018-12-12T14:57:47.924Z,20.80
2018-12-12T15:00:16.325Z,21.97
2018-12-12T15:02:44.642Z,24.13
2018-12-12T15:05:13.079Z,24.23
2018-12-12T15:07:41.237Z,25.70
2018-12-12T15:10:09.493Z,23.77
2018-12-12T15:12:37.689Z,23.13
2018-12-12T15:15:05.967Z,26.25
2018-12-12T15:17:34.149Z,26.60
2018-12-12T15:20:02.601Z,25.43
2018-12-12T15:22:31.237Z,25.23
2018-12-12T15:24:59.436Z,22.77
2018-12-12T15:27:27.680Z,24.47
2018-12-12T15:29:55.881Z,25.83
2018-12-12T15:32:24.068Z,23.63
2018-12-12T15:34:52.228Z,25.57
2018-12-12T15:37:20.424Z,24.80
2018-12-12T15:39:48.614Z,28.50
2018-12-12T15:42:16.792Z,27.50
2018-12-12T15:44:45.062Z,26.40
2018-12-12T15:47:13.216Z,29.33
2018-12-12T15:49:41.412Z,29.85
2018-12-12T15:52:09.584Z,31.73
2018-12-12T15:54:37.802Z,30.20
2018-12-12T15:57:05.964Z,30.00
2018-12-12T15:59:34.175Z,28.77
2018-12-12T16:02:02.495Z,31.68
2018-12-12T16:04:31.047Z,31.05
2018-12-12T16:06:59.442Z,28.80
2018-12-12T16:09:27.619Z,29.15
2018-12-12T16:11:55.825Z,32.30
2018-12-12T16:14:23.965Z,29.90
2018-12-12T16:16:52.179Z,33.75
2018-12-12T16:19:20.507Z,31.10
2018-12-12T16:21:48.755Z,27.50
2018-12-12T16:24:17.189Z,26.40
2018-12-12T16:26:45.471Z,32.13
2018-12-12T16:29:13.709Z,28.23
2018-12-12T16:31:41.888Z,28.90
2018-12-12T16:34:10.064Z,28.87
2018-12-12T16:36:38.247Z,27.90
2018-12-12T16:39:06.701Z,27.47
2018-12-12T16:41:34.907Z,30.45
2018-12-12T16:44:03.214Z,28.98
2018-12-12T16:46:31.397Z,26.37
2018-12-12T16:48:59.623Z,27.65
2018-12-12T16:51:27.804Z,27.50
2018-12-12T16:53:55.998Z,28.57
2018-12-12T16:56:24.326Z,29.33
2018-12-12T16:58:52.504Z,29.03
2018-12-12T17:01:20.669Z,28.20
2018-12-12T17:03:48.852Z,29.87
2018-12-12T17:06:17.034Z,32.50
2018-12-12T17:08:45.289Z,31.83
2018-12-12T17:11:13.404Z,31.17
2018-12-12T17:13:41.656Z,30.27
2018-12-12T17:16:09.820Z,29.90
2018-12-12T17:18:38.591Z,35.03
2018-12-12T17:21:06.758Z,33.83
2018-12-12T17:23:34.940Z,34.83
2018-12-12T17:26:03.126Z,28.70
2018-12-12T17:28:31.397Z,34.77
2018-12-12T17:30:59.585Z,31.87
2018-12-12T17:33:27.788Z,30.30
2018-12-12T17:35:56.330Z,29.60
2018-12-12T17:38:24.473Z,36.30
2018-12-12T17:40:53.573Z,31.03
2018-12-12T17:43:22.854Z,33.53
2018-12-12T17:45:51.224Z,36.23
2018-12-12T17:48:19.402Z,28.57
2018-12-12T17:50:47.568Z,33.75
2018-12-12T17:53:15.794Z,31.37
2018-12-12T17:55:43.975Z,32.63
2018-12-12T17:58:12.140Z,30.30
2018-12-12T18:00:40.398Z,32.50
2018-12-12T18:03:08.660Z,31.60
2018-12-12T18:05:36.869Z,28.90
2018-12-12T18:08:05.080Z,25.93
2018-12-12T18:10:33.282Z,27.67
2018-12-12T18:13:01.444Z,29.07
2018-12-12T18:15:29.709Z,27.83
2018-12-12T18:17:57.872Z,28.10
2018-12-12T18:20:26.104Z,28.40
2018-12-12T18:22:54.299Z,27.03
2018-12-12T18:25:22.489Z,27.23
2018-12-12T18:27:50.769Z,26.43
2018-12-12T18:30:19.023Z,26.73
2018-12-12T18:32:47.505Z,27.23
2018-12-12T18:35:21.811Z,25.27
2018-12-12T18:37:49.136Z,28.87
2018-12-12T18:40:19.655Z,29.07
2018-12-12T18:42:48.094Z,27.77
2018-12-12T18:45:16.399Z,32.63
2018-12-12T18:47:45.023Z,27.23
2018-12-12T18:50:13.264Z,25.90
2018-12-12T18:52:41.495Z,24.73
2018-12-12T18:55:10.068Z,25.40
2018-12-12T18:57:38.331Z,24.80
2018-12-12T19:00:06.650Z,24.07
2018-12-12T19:02:34.857Z,21.00
2018-12-12T19:05:03.388Z,23.37
2018-12-12T19:07:35.445Z,23.33
2018-12-12T19:10:06.278Z,21.30
2018-12-12T19:12:35.673Z,23.00
2018-12-12T19:15:05.815Z,24.83
2018-12-12T19:17:34.077Z,22.30
2018-12-12T19:20:03.123Z,23.30
2018-12-12T19:22:31.332Z,19.97
2018-12-12T19:24:59.588Z,20.57
2018-12-12T19:27:27.817Z,26.47
2018-12-12T19:29:56.012Z,24.93
2018-12-12T19:32:24.232Z,21.47
2018-12-12T19:34:52.461Z,25.70
2018-12-12T19:37:20.668Z,29.90
2018-12-12T19:39:48.883Z,22.62
2018-12-12T19:42:17.042Z,24.37
2018-12-12T19:44:45.398Z,21.70
2018-12-12T19:47:13.712Z,21.33
2018-12-12T19:49:41.934Z,19.77
2018-12-12T19:52:10.115Z,22.23
2018-12-12T19:54:38.359Z,20.67
2018-12-12T19:57:06.531Z,20.43
2018-12-12T19:59:35.016Z,20.70
2018-12-12T20:02:03.227Z,18.75
2018-12-12T20:04:31.449Z,22.53
2018-12-12T20:06:59.610Z,22.53
2018-12-12T20:09:27.885Z,22.87
2018-12-12T20:11:56.079Z,21.80
2018-12-12T20:14:24.269Z,22.55
2018-12-12T20:16:52.460Z,18.90
2018-12-12T20:19:20.659Z,20.07
2018-12-12T20:21:48.879Z,22.90
2018-12-12T20:24:17.224Z,19.10
2018-12-12T20:26:45.436Z,20.23
2018-12-12T20:29:13.606Z,21.00
2018-12-12T20:31:41.834Z,21.20
2018-12-12T20:34:10.158Z,21.47
2018-12-12T20:36:41.311Z,18.67
2018-12-12T20:39:09.470Z,21.57
2018-12-12T20:41:37.949Z,19.10
2018-12-12T20:44:06.343Z,21.73
2018-12-12T20:46:34.607Z,22.03
2018-12-12T20:49:02.867Z,20.00
2018-12-12T20:51:31.078Z,21.57
2018-12-12T20:53:59.280Z,20.73
2018-12-12T20:56:27.509Z,18.57
2018-12-12T20:58:55.711Z,22.37
2018-12-12T21:01:23.892Z,23.43
2018-12-12T21:03:52.119Z,22.00
2018-12-12T21:06:21.030Z,22.17
2018-12-12T21:08:49.361Z,18.30
2018-12-12T21:11:17.541Z,21.23
2018-12-12T21:13:45.807Z,17.90
2018-12-12T21:16:13.982Z,19.80
2018-12-12T21:18:42.208Z,18.23
2018-12-12T21:21:10.358Z,18.83
2018-12-12T21:23:38.568Z,16.53
2018-12-12T21:26:06.977Z,19.27
2018-12-12T21:28:35.264Z,13.30
2018-12-12T21:31:04.128Z,16.23
2018-12-12T21:33:32.333Z,16.20
2018-12-12T21:36:00.910Z,15.43
2018-12-12T21:38:29.420Z,15.77
2018-12-12T21:40:57.706Z,22.07
2018-12-12T21:43:25.898Z,18.83
2018-12-12T21:45:54.073Z,18.27
2018-12-12T21:48:22.241Z,21.53
2018-12-12T21:50:50.912Z,18.77
2018-12-12T21:53:19.209Z,22.63
2018-12-12T21:55:47.377Z,17.73
2018-12-12T21:58:15.602Z,18.60
2018-12-12T22:00:43.808Z,20.47
2018-12-12T22:03:12.013Z,21.60
2018-12-12T22:05:40.268Z,23.30
2018-12-12T22:08:08.486Z,19.43
2018-12-12T22:10:36.809Z,16.40
2018-12-12T22:13:05.049Z,20.43
2018-12-12T22:15:33.249Z,25.70
2018-12-12T22:18:01.437Z,19.80
2018-12-12T22:20:29.888Z,18.60
2018-12-12T22:22:58.181Z,20.27
2018-12-12T22:25:26.395Z,20.33
2018-12-12T22:27:54.555Z,20.70
2018-12-12T22:30:22.752Z,20.37
2018-12-12T22:32:50.943Z,22.63
2018-12-12T22:35:19.160Z,22.43
2018-12-12T22:37:47.388Z,22.53
2018-12-12T22:40:15.613Z,23.70
2018-12-12T22:42:43.849Z,21.33
2018-12-12T22:45:12.439Z,21.60
2018-12-12T22:47:40.727Z,24.67
2018-12-12T22:50:08.947Z,21.17
2018-12-12T22:52:37.123Z,24.67
2018-12-12T22:55:05.384Z,23.77
2018-12-12T22:57:33.584Z,21.87
2018-12-12T23:00:01.750Z,22.77
2018-12-12T23:02:29.914Z,23.93
2018-12-12T23:04:58.096Z,20.77
2018-12-12T23:07:26.314Z,22.57
2018-12-12T23:09:54.492Z,24.80
2018-12-12T23:12:22.650Z,22.63
2018-12-12T23:14:50.850Z,22.10
2018-12-12T23:17:19.008Z,21.23
2018-12-12T23:19:47.270Z,19.50
2018-12-12T23:22:15.456Z,23.37
2018-12-12T23:24:43.646Z,19.27
2018-12-12T23:27:11.820Z,19.20
2018-12-12T23:29:40.004Z,22.23
2018-12-12T23:32:08.180Z,21.47
2018-12-12T23:34:36.390Z,21.33
2018-12-12T23:37:04.548Z,21.67
2018-12-12T23:39:32.733Z,23.30
2018-12-12T23:42:00.903Z,23.40
2018-12-12T23:44:29.093Z,17.83
2018-12-12T23:46:57.348Z,18.70
2018-12-12T23:49:25.537Z,21.70
2018-12-12T23:51:53.703Z,19.67
2018-12-12T23:54:21.893Z,22.50
2018-12-12T23:56:50.047Z,23.63
2018-12-12T23:59:18.233Z,22.17
